sensor_id;sensor_type;location;lat;lon;timestamp;temperature;humidity
52209;DHT22;38507;53.132;6.394;2024-01-10T00:02:00;-4.20;99.90
52209;DHT22;38507;53.132;6.394;2024-01-10T00:04:26;-4.20;99.90
52209;DHT22;38507;53.132;6.394;2024-01-10T00:06:52;-4.20;99.90
52209;DHT22;38507;53.132;6.394;2024-01-10T00:09:17;-4.20;99.90
52209;DHT22;38507;53.132;6.394;2024-01-10T00:11:43;-4.20;99.90
52209;DHT22;38507;53.132;6.394;2024-01-10T00:14:09;-3.70;99.90
52209;DHT22;38507;53.132;6.394;2024-01-10T00:16:35;-4.20;99.90
52209;DHT22;38507;53.132;6.394;2024-01-10T00:19:01;-4.20;99.90
52209;DHT22;38507;53.132;6.394;2024-01-10T00:21:26;-4.30;99.90
52209;DHT22;38507;53.132;6.394;2024-01-10T00:23:52;-4.20;99.90
52209;DHT22;38507;53.132;6.394;2024-01-10T00:26:18;-4.30;99.90
52209;DHT22;38507;53.132;6.394;2024-01-10T00:28:43;-4.30;99.90
52209;DHT22;38507;53.132;6.394;2024-01-10T00:31:12;-4.30;99.90
52209;DHT22;38507;53.132;6.394;2024-01-10T00:33:38;-4.30;99.90
52209;DHT22;38507;53.132;6.394;2024-01-10T00:36:04;-4.30;99.90
52209;DHT22;38507;53.132;6.394;2024-01-10T00:38:29;-4.30;99.90
52209;DHT22;38507;53.132;6.394;2024-01-10T00:40:55;-4.30;99.90
52209;DHT22;38507;53.132;6.394;2024-01-10T00:43:21;-4.30;99.90
52209;DHT22;38507;53.132;6.394;2024-01-10T00:45:47;-4.30;99.90
52209;DHT22;38507;53.132;6.394;2024-01-10T00:48:12;-4.40;99.90
52209;DHT22;38507;53.132;6.394;2024-01-10T00:50:38;-4.40;99.90
52209;DHT22;38507;53.132;6.394;2024-01-10T00:53:04;-4.40;99.90
52209;DHT22;38507;53.132;6.394;2024-01-10T00:55:29;-4.40;99.90
52209;DHT22;38507;53.132;6.394;2024-01-10T00:57:55;-4.40;99.90
52209;DHT22;38507;53.132;6.394;2024-01-10T01:00:21;-4.40;99.90
52209;DHT22;38507;53.132;6.394;2024-01-10T01:02:46;-4.40;99.90
52209;DHT22;38507;53.132;6.394;2024-01-10T01:05:12;-4.50;99.90
52209;DHT22;38507;53.132;6.394;2024-01-10T01:07:37;-4.50;99.90
52209;DHT22;38507;53.132;6.394;2024-01-10T01:10:04;-3.90;99.90
52209;DHT22;38507;53.132;6.394;2024-01-10T01:12:30;-4.50;99.90
52209;DHT22;38507;53.132;6.394;2024-01-10T01:14:56;-4.50;99.90
52209;DHT22;38507;53.132;6.394;2024-01-10T01:17:21;-4.50;99.90
52209;DHT22;38507;53.132;6.394;2024-01-10T01:19:47;-4.50;99.90
52209;DHT22;38507;53.132;6.394;2024-01-10T01:22:13;-4.50;99.90
52209;DHT22;38507;53.132;6.394;2024-01-10T01:24:38;-4.50;99.90
52209;DHT22;38507;53.132;6.394;2024-01-10T01:27:04;-4.50;99.90
52209;DHT22;38507;53.132;6.394;2024-01-10T01:29:30;-4.50;99.90
52209;DHT22;38507;53.132;6.394;2024-01-10T01:31:55;-4.50;99.90
52209;DHT22;38507;53.132;6.394;2024-01-10T01:34:21;-4.50;99.90
52209;DHT22;38507;53.132;6.394;2024-01-10T01:36:47;-4.50;99.90
52209;DHT22;38507;53.132;6.394;2024-01-10T01:39:13;-4.50;99.90
52209;DHT22;38507;53.132;6.394;2024-01-10T01:41:39;-4.50;99.90
52209;DHT22;38507;53.132;6.394;2024-01-10T01:44:05;-4.50;99.90
52209;DHT22;38507;53.132;6.394;2024-01-10T01:46:31;-4.50;99.90
52209;DHT22;38507;53.132;6.394;2024-01-10T01:49:01;-4.50;99.90
52209;DHT22;38507;53.132;6.394;2024-01-10T01:51:28;-4.60;99.90
52209;DHT22;38507;53.132;6.394;2024-01-10T01:53:54;-4.60;99.90
52209;DHT22;38507;53.132;6.394;2024-01-10T01:56:21;-4.60;99.90
52209;DHT22;38507;53.132;6.394;2024-01-10T01:58:48;-4.60;99.90
52209;DHT22;38507;53.132;6.394;2024-01-10T02:01:15;-4.60;99.90
52209;DHT22;38507;53.132;6.394;2024-01-10T02:03:42;-4.60;99.90
52209;DHT22;38507;53.132;6.394;2024-01-10T02:06:07;-4.50;99.90
52209;DHT22;38507;53.132;6.394;2024-01-10T02:08:34;-4.50;99.90
52209;DHT22;38507;53.132;6.394;2024-01-10T02:11:03;-4.50;99.90
52209;DHT22;38507;53.132;6.394;2024-01-10T02:13:30;-3.90;99.90
52209;DHT22;38507;53.132;6.394;2024-01-10T02:15:57;-4.50;99.90
52209;DHT22;38507;53.132;6.394;2024-01-10T02:18:23;-4.50;99.90
52209;DHT22;38507;53.132;6.394;2024-01-10T02:20:49;-4.50;99.90
52209;DHT22;38507;53.132;6.394;2024-01-10T02:23:15;-4.50;99.90
52209;DHT22;38507;53.132;6.394;2024-01-10T02:25:41;-4.50;99.90
52209;DHT22;38507;53.132;6.394;2024-01-10T02:28:07;-4.50;99.90
52209;DHT22;38507;53.132;6.394;2024-01-10T02:30:33;-4.50;99.90
52209;DHT22;38507;53.132;6.394;2024-01-10T02:32:58;-4.50;99.90
52209;DHT22;38507;53.132;6.394;2024-01-10T02:35:24;-4.40;99.90
52209;DHT22;38507;53.132;6.394;2024-01-10T02:37:50;-4.40;99.90
52209;DHT22;38507;53.132;6.394;2024-01-10T02:40:17;-4.80;99.90
52209;DHT22;38507;53.132;6.394;2024-01-10T02:42:43;-4.40;99.90
52209;DHT22;38507;53.132;6.394;2024-01-10T02:45:09;-4.40;99.90
52209;DHT22;38507;53.132;6.394;2024-01-10T02:47:35;-4.40;99.90
52209;DHT22;38507;53.132;6.394;2024-01-10T02:50:03;-4.40;99.90
52209;DHT22;38507;53.132;6.394;2024-01-10T02:52:28;-4.40;99.90
52209;DHT22;38507;53.132;6.394;2024-01-10T02:54:54;-4.40;99.90
52209;DHT22;38507;53.132;6.394;2024-01-10T02:57:19;-4.40;99.90
52209;DHT22;38507;53.132;6.394;2024-01-10T02:59:45;-4.40;99.90
52209;DHT22;38507;53.132;6.394;2024-01-10T03:02:11;-4.30;99.90
52209;DHT22;38507;53.132;6.394;2024-01-10T03:04:37;-4.30;99.90
52209;DHT22;38507;53.132;6.394;2024-01-10T03:07:02;-4.30;99.90
52209;DHT22;38507;53.132;6.394;2024-01-10T03:09:28;-4.30;99.90
52209;DHT22;38507;53.132;6.394;2024-01-10T03:11:54;-4.30;99.90
52209;DHT22;38507;53.132;6.394;2024-01-10T03:14:19;-4.30;99.90
52209;DHT22;38507;53.132;6.394;2024-01-10T03:16:45;-4.30;99.90
52209;DHT22;38507;53.132;6.394;2024-01-10T03:19:11;-4.30;99.90
52209;DHT22;38507;53.132;6.394;2024-01-10T03:21:37;-4.30;99.90
52209;DHT22;38507;53.132;6.394;2024-01-10T03:24:02;-4.30;99.90
52209;DHT22;38507;53.132;6.394;2024-01-10T03:26:28;-4.70;99.90
52209;DHT22;38507;53.132;6.394;2024-01-10T03:28:56;-4.30;99.90
52209;DHT22;38507;53.132;6.394;2024-01-10T03:31:22;-4.40;99.90
52209;DHT22;38507;53.132;6.394;2024-01-10T03:33:48;-4.30;99.90
52209;DHT22;38507;53.132;6.394;2024-01-10T03:36:16;-4.30;99.90
52209;DHT22;38507;53.132;6.394;2024-01-10T03:38:42;-4.30;99.90
52209;DHT22;38507;53.132;6.394;2024-01-10T03:41:16;-4.40;99.90
52209;DHT22;38507;53.132;6.394;2024-01-10T03:43:42;-4.30;99.90
52209;DHT22;38507;53.132;6.394;2024-01-10T03:46:11;-4.30;99.90
52209;DHT22;38507;53.132;6.394;2024-01-10T03:48:38;-4.30;99.90
52209;DHT22;38507;53.132;6.394;2024-01-10T03:51:12;-4.40;99.90
52209;DHT22;38507;53.132;6.394;2024-01-10T03:53:38;-4.30;99.90
52209;DHT22;38507;53.132;6.394;2024-01-10T03:56:04;-4.40;99.90
52209;DHT22;38507;53.132;6.394;2024-01-10T03:58:30;-4.30;99.90
52209;DHT22;38507;53.132;6.394;2024-01-10T04:00:56;-4.30;99.90
52209;DHT22;38507;53.132;6.394;2024-01-10T04:03:21;-4.30;99.90
52209;DHT22;38507;53.132;6.394;2024-01-10T04:05:47;-4.30;99.90
52209;DHT22;38507;53.132;6.394;2024-01-10T04:08:13;-4.30;99.90
52209;DHT22;38507;53.132;6.394;2024-01-10T04:10:38;-4.30;99.90
52209;DHT22;38507;53.132;6.394;2024-01-10T04:13:04;-4.40;99.90
52209;DHT22;38507;53.132;6.394;2024-01-10T04:15:29;-4.40;99.90
52209;DHT22;38507;53.132;6.394;2024-01-10T04:17:55;-4.40;99.90
52209;DHT22;38507;53.132;6.394;2024-01-10T04:20:21;-4.40;99.90
52209;DHT22;38507;53.132;6.394;2024-01-10T04:22:46;-4.40;99.90
52209;DHT22;38507;53.132;6.394;2024-01-10T04:25:12;-4.40;99.90
52209;DHT22;38507;53.132;6.394;2024-01-10T04:27:38;-4.30;99.90
52209;DHT22;38507;53.132;6.394;2024-01-10T04:30:04;-4.40;99.90
52209;DHT22;38507;53.132;6.394;2024-01-10T04:32:30;-4.40;99.90
52209;DHT22;38507;53.132;6.394;2024-01-10T04:34:56;-4.40;99.90
52209;DHT22;38507;53.132;6.394;2024-01-10T04:37:22;-4.40;99.90
52209;DHT22;38507;53.132;6.394;2024-01-10T04:39:47;-4.40;99.90
52209;DHT22;38507;53.132;6.394;2024-01-10T04:42:13;-4.40;99.90
52209;DHT22;38507;53.132;6.394;2024-01-10T04:44:39;-4.40;99.90
52209;DHT22;38507;53.132;6.394;2024-01-10T04:47:05;-4.40;99.90
52209;DHT22;38507;53.132;6.394;2024-01-10T04:49:31;-4.40;99.90
52209;DHT22;38507;53.132;6.394;2024-01-10T04:51:57;-4.40;99.90
52209;DHT22;38507;53.132;6.394;2024-01-10T04:54:22;-4.40;99.90
52209;DHT22;38507;53.132;6.394;2024-01-10T04:56:48;-4.40;99.90
52209;DHT22;38507;53.132;6.394;2024-01-10T04:59:14;-4.40;99.90
52209;DHT22;38507;53.132;6.394;2024-01-10T05:01:39;-4.40;99.90
52209;DHT22;38507;53.132;6.394;2024-01-10T05:04:05;-4.40;99.90
52209;DHT22;38507;53.132;6.394;2024-01-10T05:06:31;-4.40;99.90
52209;DHT22;38507;53.132;6.394;2024-01-10T05:08:57;-4.40;99.90
52209;DHT22;38507;53.132;6.394;2024-01-10T05:11:24;-4.40;99.90
52209;DHT22;38507;53.132;6.394;2024-01-10T05:13:51;-4.40;99.90
52209;DHT22;38507;53.132;6.394;2024-01-10T05:16:17;-4.40;99.90
52209;DHT22;38507;53.132;6.394;2024-01-10T05:18:43;-4.40;99.90
52209;DHT22;38507;53.132;6.394;2024-01-10T05:21:09;-4.40;99.90
52209;DHT22;38507;53.132;6.394;2024-01-10T05:23:35;-4.40;99.90
52209;DHT22;38507;53.132;6.394;2024-01-10T05:26:01;-4.40;99.90
52209;DHT22;38507;53.132;6.394;2024-01-10T05:28:26;-4.40;99.90
52209;DHT22;38507;53.132;6.394;2024-01-10T05:30:52;-4.40;99.90
52209;DHT22;38507;53.132;6.394;2024-01-10T05:33:19;-4.40;99.90
52209;DHT22;38507;53.132;6.394;2024-01-10T05:35:45;-4.50;99.90
52209;DHT22;38507;53.132;6.394;2024-01-10T05:38:11;-4.50;99.90
52209;DHT22;38507;53.132;6.394;2024-01-10T05:40:36;-4.50;99.90
52209;DHT22;38507;53.132;6.394;2024-01-10T05:43:02;-4.50;99.90
52209;DHT22;38507;53.132;6.394;2024-01-10T05:45:27;-4.20;99.90
52209;DHT22;38507;53.132;6.394;2024-01-10T05:47:54;-4.50;99.90
52209;DHT22;38507;53.132;6.394;2024-01-10T05:50:20;-4.50;99.90
52209;DHT22;38507;53.132;6.394;2024-01-10T05:52:46;-4.50;99.90
52209;DHT22;38507;53.132;6.394;2024-01-10T05:55:12;-4.50;99.90
52209;DHT22;38507;53.132;6.394;2024-01-10T05:57:38;-4.50;99.90
52209;DHT22;38507;53.132;6.394;2024-01-10T06:00:04;-4.50;99.90
52209;DHT22;38507;53.132;6.394;2024-01-10T06:02:38;-4.50;99.90
52209;DHT22;38507;53.132;6.394;2024-01-10T06:05:09;-4.50;99.90
52209;DHT22;38507;53.132;6.394;2024-01-10T06:07:35;-4.50;99.90
52209;DHT22;38507;53.132;6.394;2024-01-10T06:10:01;-4.50;99.90
52209;DHT22;38507;53.132;6.394;2024-01-10T06:12:27;-4.50;99.90
52209;DHT22;38507;53.132;6.394;2024-01-10T06:14:53;-4.50;99.90
52209;DHT22;38507;53.132;6.394;2024-01-10T06:17:19;-4.50;99.90
52209;DHT22;38507;53.132;6.394;2024-01-10T06:19:45;-4.50;99.90
52209;DHT22;38507;53.132;6.394;2024-01-10T06:22:10;-4.60;99.90
52209;DHT22;38507;53.132;6.394;2024-01-10T06:24:39;-4.60;99.90
52209;DHT22;38507;53.132;6.394;2024-01-10T06:27:06;-4.60;99.90
52209;DHT22;38507;53.132;6.394;2024-01-10T06:29:32;-4.60;99.90
52209;DHT22;38507;53.132;6.394;2024-01-10T06:31:58;-4.60;99.90
52209;DHT22;38507;53.132;6.394;2024-01-10T06:34:26;-4.60;99.90
52209;DHT22;38507;53.132;6.394;2024-01-10T06:36:52;-4.60;99.90
52209;DHT22;38507;53.132;6.394;2024-01-10T06:39:18;-4.60;99.90
52209;DHT22;38507;53.132;6.394;2024-01-10T06:41:46;-4.60;99.90
52209;DHT22;38507;53.132;6.394;2024-01-10T06:44:12;-4.60;99.90
52209;DHT22;38507;53.132;6.394;2024-01-10T06:46:38;-4.60;99.90
52209;DHT22;38507;53.132;6.394;2024-01-10T06:49:04;-4.60;99.90
52209;DHT22;38507;53.132;6.394;2024-01-10T06:51:29;-4.60;99.90
52209;DHT22;38507;53.132;6.394;2024-01-10T06:53:55;-4.70;99.90
52209;DHT22;38507;53.132;6.394;2024-01-10T06:56:28;-4.70;99.90
52209;DHT22;38507;53.132;6.394;2024-01-10T06:58:53;-4.70;99.90
52209;DHT22;38507;53.132;6.394;2024-01-10T07:01:20;-4.70;99.90
52209;DHT22;38507;53.132;6.394;2024-01-10T07:03:47;-4.70;99.90
52209;DHT22;38507;53.132;6.394;2024-01-10T07:06:13;-4.70;99.90
52209;DHT22;38507;53.132;6.394;2024-01-10T07:08:42;-4.70;99.90
52209;DHT22;38507;53.132;6.394;2024-01-10T07:11:08;-4.70;99.90
52209;DHT22;38507;53.132;6.394;2024-01-10T07:13:34;-4.70;99.90
52209;DHT22;38507;53.132;6.394;2024-01-10T07:16:00;-5.10;99.90
52209;DHT22;38507;53.132;6.394;2024-01-10T07:18:28;-4.70;99.90
52209;DHT22;38507;53.132;6.394;2024-01-10T07:20:54;-4.70;99.90
52209;DHT22;38507;53.132;6.394;2024-01-10T07:23:20;-4.80;99.90
52209;DHT22;38507;53.132;6.394;2024-01-10T07:25:45;-4.80;99.90
52209;DHT22;38507;53.132;6.394;2024-01-10T07:28:11;-4.80;99.90
52209;DHT22;38507;53.132;6.394;2024-01-10T07:30:36;-4.70;99.90
52209;DHT22;38507;53.132;6.394;2024-01-10T07:33:02;-4.70;99.90
52209;DHT22;38507;53.132;6.394;2024-01-10T07:35:28;-4.70;99.90
52209;DHT22;38507;53.132;6.394;2024-01-10T07:37:54;-4.80;99.90
52209;DHT22;38507;53.132;6.394;2024-01-10T07:40:20;-4.80;99.90
52209;DHT22;38507;53.132;6.394;2024-01-10T07:42:46;-4.70;99.90
52209;DHT22;38507;53.132;6.394;2024-01-10T07:45:11;-4.70;99.90
52209;DHT22;38507;53.132;6.394;2024-01-10T07:47:37;-4.70;99.90
52209;DHT22;38507;53.132;6.394;2024-01-10T07:50:07;-4.80;99.90
52209;DHT22;38507;53.132;6.394;2024-01-10T07:52:34;-4.70;99.90
52209;DHT22;38507;53.132;6.394;2024-01-10T07:55:00;-4.70;99.90
52209;DHT22;38507;53.132;6.394;2024-01-10T07:57:29;-4.70;99.90
52209;DHT22;38507;53.132;6.394;2024-01-10T07:59:54;-4.80;99.90
52209;DHT22;38507;53.132;6.394;2024-01-10T08:02:20;-4.80;99.90
52209;DHT22;38507;53.132;6.394;2024-01-10T08:04:45;-4.70;99.90
52209;DHT22;38507;53.132;6.394;2024-01-10T08:07:11;-4.70;99.90
52209;DHT22;38507;53.132;6.394;2024-01-10T08:09:37;-4.70;99.90
52209;DHT22;38507;53.132;6.394;2024-01-10T08:12:03;-4.70;99.90
52209;DHT22;38507;53.132;6.394;2024-01-10T08:14:29;-4.70;99.90
52209;DHT22;38507;53.132;6.394;2024-01-10T08:16:55;-4.70;99.90
52209;DHT22;38507;53.132;6.394;2024-01-10T08:19:24;-4.70;99.90
52209;DHT22;38507;53.132;6.394;2024-01-10T08:21:52;-4.70;99.90
52209;DHT22;38507;53.132;6.394;2024-01-10T08:24:18;-4.70;99.90
52209;DHT22;38507;53.132;6.394;2024-01-10T08:26:44;-4.70;99.90
52209;DHT22;38507;53.132;6.394;2024-01-10T08:29:10;-4.70;99.90
52209;DHT22;38507;53.132;6.394;2024-01-10T08:31:35;-4.70;99.90
52209;DHT22;38507;53.132;6.394;2024-01-10T08:34:01;-4.60;99.90
52209;DHT22;38507;53.132;6.394;2024-01-10T08:36:27;-4.60;99.90
52209;DHT22;38507;53.132;6.394;2024-01-10T08:38:52;-4.60;99.90
52209;DHT22;38507;53.132;6.394;2024-01-10T08:41:18;-4.60;99.90
52209;DHT22;38507;53.132;6.394;2024-01-10T08:43:48;-4.60;99.90
52209;DHT22;38507;53.132;6.394;2024-01-10T08:46:14;-4.50;99.90
52209;DHT22;38507;53.132;6.394;2024-01-10T08:48:40;-4.50;99.90
52209;DHT22;38507;53.132;6.394;2024-01-10T08:51:05;-4.50;99.90
52209;DHT22;38507;53.132;6.394;2024-01-10T08:53:31;-4.50;99.90
52209;DHT22;38507;53.132;6.394;2024-01-10T08:55:57;-4.50;99.90
52209;DHT22;38507;53.132;6.394;2024-01-10T08:58:23;-4.40;99.90
52209;DHT22;38507;53.132;6.394;2024-01-10T09:00:48;-4.40;99.90
52209;DHT22;38507;53.132;6.394;2024-01-10T09:03:14;-4.40;99.90
52209;DHT22;38507;53.132;6.394;2024-01-10T09:05:40;-4.30;99.90
52209;DHT22;38507;53.132;6.394;2024-01-10T09:08:05;-4.30;99.90
52209;DHT22;38507;53.132;6.394;2024-01-10T09:10:31;-4.30;99.90
52209;DHT22;38507;53.132;6.394;2024-01-10T09:13:00;-4.20;99.90
52209;DHT22;38507;53.132;6.394;2024-01-10T09:15:26;-4.20;99.90
52209;DHT22;38507;53.132;6.394;2024-01-10T09:17:52;-4.10;99.90
52209;DHT22;38507;53.132;6.394;2024-01-10T09:20:17;-4.10;99.90
52209;DHT22;38507;53.132;6.394;2024-01-10T09:22:43;-4.10;99.90
52209;DHT22;38507;53.132;6.394;2024-01-10T09:25:09;-4.00;99.90
52209;DHT22;38507;53.132;6.394;2024-01-10T09:27:39;-4.00;99.90
52209;DHT22;38507;53.132;6.394;2024-01-10T09:30:06;-3.90;99.90
52209;DHT22;38507;53.132;6.394;2024-01-10T09:32:35;-3.90;99.90
52209;DHT22;38507;53.132;6.394;2024-01-10T09:35:01;-3.80;99.90
52209;DHT22;38507;53.132;6.394;2024-01-10T09:37:27;-3.70;99.90
52209;DHT22;38507;53.132;6.394;2024-01-10T09:39:52;-3.70;99.90
52209;DHT22;38507;53.132;6.394;2024-01-10T09:42:19;-3.60;99.90
52209;DHT22;38507;53.132;6.394;2024-01-10T09:44:47;-3.50;99.90
52209;DHT22;38507;53.132;6.394;2024-01-10T09:47:15;-3.40;99.90
52209;DHT22;38507;53.132;6.394;2024-01-10T09:49:41;-3.30;99.90
52209;DHT22;38507;53.132;6.394;2024-01-10T09:52:10;-3.20;99.90
52209;DHT22;38507;53.132;6.394;2024-01-10T09:54:38;-3.00;99.90
52209;DHT22;38507;53.132;6.394;2024-01-10T09:57:05;-2.90;99.90
52209;DHT22;38507;53.132;6.394;2024-01-10T09:59:31;-2.80;99.90
52209;DHT22;38507;53.132;6.394;2024-01-10T10:01:57;-2.70;99.90
52209;DHT22;38507;53.132;6.394;2024-01-10T10:04:27;-2.60;99.90
52209;DHT22;38507;53.132;6.394;2024-01-10T10:07:00;-2.40;99.90
52209;DHT22;38507;53.132;6.394;2024-01-10T10:09:27;-2.30;99.90
52209;DHT22;38507;53.132;6.394;2024-01-10T10:11:56;-2.10;99.90
52209;DHT22;38507;53.132;6.394;2024-01-10T10:14:28;-2.00;99.90
52209;DHT22;38507;53.132;6.394;2024-01-10T10:16:54;-1.80;99.90
52209;DHT22;38507;53.132;6.394;2024-01-10T10:19:24;-1.60;99.90
52209;DHT22;38507;53.132;6.394;2024-01-10T10:21:50;-1.50;99.90
52209;DHT22;38507;53.132;6.394;2024-01-10T10:24:16;-1.40;99.90
52209;DHT22;38507;53.132;6.394;2024-01-10T10:26:42;-1.30;99.90
52209;DHT22;38507;53.132;6.394;2024-01-10T10:29:09;-1.10;99.90
52209;DHT22;38507;53.132;6.394;2024-01-10T10:31:35;-0.90;99.90
52209;DHT22;38507;53.132;6.394;2024-01-10T10:34:01;-0.70;99.90
52209;DHT22;38507;53.132;6.394;2024-01-10T10:36:29;-0.50;99.90
52209;DHT22;38507;53.132;6.394;2024-01-10T10:38:55;-0.40;99.90
52209;DHT22;38507;53.132;6.394;2024-01-10T10:41:21;-0.30;99.90
52209;DHT22;38507;53.132;6.394;2024-01-10T10:43:47;-0.10;99.90
52209;DHT22;38507;53.132;6.394;2024-01-10T10:46:15;0.00;99.90
52209;DHT22;38507;53.132;6.394;2024-01-10T10:48:42;0.10;99.90
52209;DHT22;38507;53.132;6.394;2024-01-10T10:51:10;0.20;99.90
52209;DHT22;38507;53.132;6.394;2024-01-10T10:53:37;0.30;99.90
52209;DHT22;38507;53.132;6.394;2024-01-10T10:56:04;0.40;99.90
52209;DHT22;38507;53.132;6.394;2024-01-10T10:58:35;0.40;99.90
52209;DHT22;38507;53.132;6.394;2024-01-10T11:01:06;0.50;99.90
52209;DHT22;38507;53.132;6.394;2024-01-10T11:03:34;0.60;99.90
52209;DHT22;38507;53.132;6.394;2024-01-10T11:06:01;0.60;99.90
52209;DHT22;38507;53.132;6.394;2024-01-10T11:08:27;0.70;99.90
52209;DHT22;38507;53.132;6.394;2024-01-10T11:10:55;0.80;99.90
52209;DHT22;38507;53.132;6.394;2024-01-10T11:24:14;1.10;99.90
52209;DHT22;38507;53.132;6.394;2024-01-10T11:26:40;1.20;99.90
52209;DHT22;38507;53.132;6.394;2024-01-10T11:29:05;1.30;99.90
52209;DHT22;38507;53.132;6.394;2024-01-10T11:31:32;1.20;99.90
52209;DHT22;38507;53.132;6.394;2024-01-10T11:34:01;1.20;99.90
52209;DHT22;38507;53.132;6.394;2024-01-10T11:36:30;1.30;99.90
52209;DHT22;38507;53.132;6.394;2024-01-10T11:39:03;1.30;99.90
52209;DHT22;38507;53.132;6.394;2024-01-10T11:46:59;1.50;99.90
52209;DHT22;38507;53.132;6.394;2024-01-10T11:49:25;2.80;99.90
52209;DHT22;38507;53.132;6.394;2024-01-10T11:51:55;1.70;99.90
52209;DHT22;38507;53.132;6.394;2024-01-10T11:54:43;1.70;99.90
52209;DHT22;38507;53.132;6.394;2024-01-10T11:57:25;1.70;99.90
52209;DHT22;38507;53.132;6.394;2024-01-10T11:59:56;1.70;99.90
52209;DHT22;38507;53.132;6.394;2024-01-10T12:02:24;1.80;99.90
52209;DHT22;38507;53.132;6.394;2024-01-10T12:04:51;1.90;99.90
52209;DHT22;38507;53.132;6.394;2024-01-10T12:07:18;1.90;99.90
52209;DHT22;38507;53.132;6.394;2024-01-10T12:09:44;2.00;99.90
52209;DHT22;38507;53.132;6.394;2024-01-10T12:12:12;2.00;99.90
52209;DHT22;38507;53.132;6.394;2024-01-10T12:14:37;2.10;99.90
52209;DHT22;38507;53.132;6.394;2024-01-10T12:17:05;2.20;99.90
52209;DHT22;38507;53.132;6.394;2024-01-10T12:19:31;2.20;99.90
52209;DHT22;38507;53.132;6.394;2024-01-10T12:21:57;2.20;99.90
52209;DHT22;38507;53.132;6.394;2024-01-10T12:24:23;2.30;99.90
52209;DHT22;38507;53.132;6.394;2024-01-10T12:26:49;2.50;99.90
52209;DHT22;38507;53.132;6.394;2024-01-10T12:29:19;2.60;99.90
52209;DHT22;38507;53.132;6.394;2024-01-10T12:31:48;2.60;99.90
52209;DHT22;38507;53.132;6.394;2024-01-10T12:34:14;2.60;99.90
52209;DHT22;38507;53.132;6.394;2024-01-10T12:36:43;3.70;99.90
52209;DHT22;38507;53.132;6.394;2024-01-10T12:39:09;2.80;99.90
52209;DHT22;38507;53.132;6.394;2024-01-10T12:41:36;2.80;99.90
52209;DHT22;38507;53.132;6.394;2024-01-10T12:44:03;2.80;99.90
52209;DHT22;38507;53.132;6.394;2024-01-10T12:46:30;2.80;99.90
52209;DHT22;38507;53.132;6.394;2024-01-10T12:49:04;2.70;99.90
52209;DHT22;38507;53.132;6.394;2024-01-10T12:51:34;2.90;99.90
52209;DHT22;38507;53.132;6.394;2024-01-10T12:54:03;2.90;99.90
52209;DHT22;38507;53.132;6.394;2024-01-10T12:56:32;2.90;99.90
52209;DHT22;38507;53.132;6.394;2024-01-10T12:58:58;2.90;99.90
52209;DHT22;38507;53.132;6.394;2024-01-10T13:01:24;3.00;99.90
52209;DHT22;38507;53.132;6.394;2024-01-10T13:03:50;3.10;99.90
52209;DHT22;38507;53.132;6.394;2024-01-10T13:06:16;3.10;99.90
52209;DHT22;38507;53.132;6.394;2024-01-10T13:08:43;3.00;99.90
52209;DHT22;38507;53.132;6.394;2024-01-10T13:11:09;3.10;99.90
52209;DHT22;38507;53.132;6.394;2024-01-10T13:13:38;3.00;99.90
52209;DHT22;38507;53.132;6.394;2024-01-10T13:16:04;3.10;99.90
52209;DHT22;38507;53.132;6.394;2024-01-10T13:18:29;3.10;99.90
52209;DHT22;38507;53.132;6.394;2024-01-10T13:20:56;3.60;99.90
52209;DHT22;38507;53.132;6.394;2024-01-10T13:23:22;3.20;99.90
52209;DHT22;38507;53.132;6.394;2024-01-10T13:25:49;3.20;99.90
52209;DHT22;38507;53.132;6.394;2024-01-10T13:28:14;3.20;99.90
52209;DHT22;38507;53.132;6.394;2024-01-10T13:30:41;3.30;99.90
52209;DHT22;38507;53.132;6.394;2024-01-10T13:33:08;3.30;99.90
52209;DHT22;38507;53.132;6.394;2024-01-10T13:35:37;3.40;99.90
52209;DHT22;38507;53.132;6.394;2024-01-10T13:38:04;3.30;99.90
52209;DHT22;38507;53.132;6.394;2024-01-10T13:40:31;3.30;99.90
52209;DHT22;38507;53.132;6.394;2024-01-10T13:42:57;3.30;99.90
52209;DHT22;38507;53.132;6.394;2024-01-10T13:45:23;3.20;99.90
52209;DHT22;38507;53.132;6.394;2024-01-10T13:47:49;3.20;99.90
52209;DHT22;38507;53.132;6.394;2024-01-10T13:50:15;3.10;99.90
52209;DHT22;38507;53.132;6.394;2024-01-10T13:52:41;3.10;99.90
52209;DHT22;38507;53.132;6.394;2024-01-10T13:55:07;3.10;99.90
52209;DHT22;38507;53.132;6.394;2024-01-10T13:57:33;3.00;99.90
52209;DHT22;38507;53.132;6.394;2024-01-10T14:00:02;3.00;99.90
52209;DHT22;38507;53.132;6.394;2024-01-10T14:02:32;3.10;99.90
52209;DHT22;38507;53.132;6.394;2024-01-10T14:04:58;3.00;99.90
52209;DHT22;38507;53.132;6.394;2024-01-10T14:07:24;3.20;99.90
52209;DHT22;38507;53.132;6.394;2024-01-10T14:09:51;3.10;99.90
52209;DHT22;38507;53.132;6.394;2024-01-10T14:12:20;3.00;99.90
52209;DHT22;38507;53.132;6.394;2024-01-10T14:14:45;2.90;99.90
52209;DHT22;38507;53.132;6.394;2024-01-10T14:17:11;3.00;99.90
52209;DHT22;38507;53.132;6.394;2024-01-10T14:19:36;2.90;99.90
52209;DHT22;38507;53.132;6.394;2024-01-10T14:22:02;3.70;99.90
52209;DHT22;38507;53.132;6.394;2024-01-10T14:24:28;3.00;99.90
52209;DHT22;38507;53.132;6.394;2024-01-10T14:26:54;3.00;99.90
52209;DHT22;38507;53.132;6.394;2024-01-10T14:29:20;2.90;99.90
52209;DHT22;38507;53.132;6.394;2024-01-10T14:31:47;2.90;99.90
52209;DHT22;38507;53.132;6.394;2024-01-10T14:34:14;2.90;99.90
52209;DHT22;38507;53.132;6.394;2024-01-10T14:36:40;2.90;99.90
52209;DHT22;38507;53.132;6.394;2024-01-10T14:39:06;2.90;99.90
52209;DHT22;38507;53.132;6.394;2024-01-10T14:41:38;2.70;99.90
52209;DHT22;38507;53.132;6.394;2024-01-10T14:44:03;2.60;99.90
52209;DHT22;38507;53.132;6.394;2024-01-10T14:46:29;2.40;99.90
52209;DHT22;38507;53.132;6.394;2024-01-10T14:48:55;2.40;99.90
52209;DHT22;38507;53.132;6.394;2024-01-10T14:51:20;2.40;99.90
52209;DHT22;38507;53.132;6.394;2024-01-10T14:53:46;2.40;99.90
52209;DHT22;38507;53.132;6.394;2024-01-10T14:56:12;2.40;99.90
52209;DHT22;38507;53.132;6.394;2024-01-10T14:58:39;2.30;99.90
52209;DHT22;38507;53.132;6.394;2024-01-10T15:01:08;2.10;99.90
52209;DHT22;38507;53.132;6.394;2024-01-10T15:03:34;2.00;99.90
52209;DHT22;38507;53.132;6.394;2024-01-10T15:05:59;1.90;99.90
52209;DHT22;38507;53.132;6.394;2024-01-10T15:08:25;1.70;99.90
52209;DHT22;38507;53.132;6.394;2024-01-10T15:10:50;1.50;99.90
52209;DHT22;38507;53.132;6.394;2024-01-10T15:13:16;1.50;99.90
52209;DHT22;38507;53.132;6.394;2024-01-10T15:15:43;1.30;99.90
52209;DHT22;38507;53.132;6.394;2024-01-10T15:18:09;1.10;99.90
52209;DHT22;38507;53.132;6.394;2024-01-10T15:20:34;0.80;99.90
52209;DHT22;38507;53.132;6.394;2024-01-10T15:23:00;0.70;99.90
52209;DHT22;38507;53.132;6.394;2024-01-10T15:25:26;0.60;99.90
52209;DHT22;38507;53.132;6.394;2024-01-10T15:27:52;0.50;99.90
52209;DHT22;38507;53.132;6.394;2024-01-10T15:30:18;0.40;99.90
52209;DHT22;38507;53.132;6.394;2024-01-10T15:32:44;0.20;99.90
52209;DHT22;38507;53.132;6.394;2024-01-10T15:35:11;0.10;99.90
52209;DHT22;38507;53.132;6.394;2024-01-10T15:37:37;0.00;99.90
52209;DHT22;38507;53.132;6.394;2024-01-10T15:40:08;-0.10;99.90
52209;DHT22;38507;53.132;6.394;2024-01-10T15:42:34;-0.20;99.90
52209;DHT22;38507;53.132;6.394;2024-01-10T15:44:59;-0.40;99.90
52209;DHT22;38507;53.132;6.394;2024-01-10T15:47:27;-0.50;99.90